Terminal Aerodrome Forecast
Issued by NWS Jackson, MS

Home | Current Version | Previous Version | Text Only | Print | Product List | Glossary On
Versions: 1 2 3 4 5 6 7 8 9 10 11 12
512
FTUS44 KJAN 081720
TAFHBG
TAF
KHBG 081720Z 0818/0918 30019G23KT P6SM FEW070
     FM082000 30016G24KT P6SM OVC100
     FM090000 28010KT P6SM BKN050
     FM091400 30013G20KT P6SM SKC=

USA.gov is the U.S. government's official web portal to all federal, state and local government web resources and services.